Latest Weather Observations for Hillarys Point Boat Harbour

IDW60901

Issued at 6:11 pm WST Thursday 30 June 2016 (issued every 10 minutes, with the page automatically refreshed every 10 minutes)

About weather observations | Map of Perth area stations | Latest observations for Perth area | Other Formats
Station Details ID: 009265 Name: HILLARYS BOAT HARBOUR NTC AWS Lat: -31.83 Lon: 115.74 Height: 0.0 m
Data from the previous 72 hours. | See also: Recent months for locations in Western Australia
Date/Time
WST
Temp
°C
App
Temp
°C
Dew
Point
°C
Rel
Hum
%
Delta-T
°C
Wind Press
QNH
hPa
Press
MSL
hPa
Rain since
9am
mm
Dir  Spd
km/h
Gust
km/h
Spd
kts
Gust
kts
30/06:00pm 16.3 - - - - SSW 9 17 5 9 1025.5 1025.5 -
30/05:30pm 16.2 - - - - SSW 7 13 4 7 1025.0 1025.0 -
30/05:00pm 16.5 - - - - SSW 7 15 4 8 1024.7 1024.7 -
30/04:30pm 16.7 - - - - SSW 6 13 3 7 1024.6 1024.6 -
30/04:00pm 16.9 - - - - SSW 7 13 4 7 1024.5 1024.5 -
30/03:30pm 17.0 - - - - SSW 6 13 3 7 1024.4 1024.4 -
30/03:00pm 16.9 - - - - SSW 6 11 3 6 1024.4 1024.4 -
30/02:30pm 17.2 - - - - S 6 15 3 8 1024.4 1024.4 -
30/02:00pm 17.1 - - - - S 4 11 2 6 1024.5 1024.5 -
30/01:30pm 17.0 - - - - SSE 7 15 4 8 1024.8 1024.8 -
30/01:00pm 17.1 - - - - S 6 11 3 6 1025.1 1025.1 -
30/12:30pm 16.8 - - - - S 6 13 3 7 1025.3 1025.3 -
30/12:00pm 17.1 - - - - E 4 13 2 7 1025.8 1025.8 -
30/11:30am 16.5 - - - - ENE 7 15 4 8 1026.2 1026.2 -
30/11:00am 15.8 - - - - ENE 9 17 5 9 1026.6 1026.6 -
30/10:30am 15.2 - - - - ENE 11 19 6 10 1026.8 1026.8 -
30/10:00am 14.4 - - - - ENE 11 19 6 10 1026.8 1026.8 -
30/09:30am 13.1 - - - - ENE 11 17 6 9 1026.8 1026.8 -
30/09:00am 11.6 - - - - ENE 9 15 5 8 1026.6 1026.6 -
30/08:30am 10.8 - - - - ENE 11 17 6 9 1026.2 1026.2 -
30/08:00am 9.9 - - - - ENE 11 17 6 9 1025.9 1025.9 -
30/07:30am 9.6 - - - - ENE 9 13 5 7 1025.7 1025.7 -
30/07:00am 9.9 - - - - ENE 13 19 7 10 1025.4 1025.4 -
30/06:30am 10.0 - - - - ENE 11 15 6 8 1025.2 1025.2 -
30/06:00am 10.4 - - - - ENE 11 15 6 8 1025.0 1025.0 -
30/05:30am 10.4 - - - - ENE 11 17 6 9 1024.8 1024.8 -
30/05:00am 10.4 - - - - ENE 11 17 6 9 1024.8 1024.8 -
30/04:30am 10.7 - - - - ENE 11 17 6 9 1024.5 1024.5 -
30/04:00am 10.7 - - - - ENE 11 17 6 9 1024.3 1024.3 -
30/03:30am 10.6 - - - - ENE 9 15 5 8 1024.2 1024.2 -
30/03:00am 10.7 - - - - ENE 9 17 5 9 1024.1 1024.1 -
30/02:30am 11.0 - - - - ENE 9 15 5 8 1024.2 1024.2 -
30/02:00am 11.3 - - - - ENE 6 11 3 6 1024.1 1024.1 -
30/01:30am 11.3 - - - - ENE 9 13 5 7 1024.1 1024.1 -
30/01:00am 11.5 - - - - ENE 4 7 2 4 1023.9 1023.9 -
30/12:30am 12.0 - - - - ENE 6 9 3 5 1023.9 1023.9 -
30/12:00am 12.5 - - - - ENE 6 11 3 6 1024.0 1024.0 -
 
Date/Time
WST
Temp
°C
App
Temp
°C
Dew
Point
°C
Rel
Hum
%
Delta-T
°C
Wind Press
QNH
hPa
Press
MSL
hPa
Rain since
9am
mm
Dir  Spd
km/h
Gust
km/h
Spd
kts
Gust
kts
29/11:30pm 13.3 - - - - ENE 4 9 2 5 1023.8 1023.8 -
29/11:00pm 13.3 - - - - ENE 9 11 5 6 1023.8 1023.8 -
29/10:30pm 13.4 - - - - ENE 6 9 3 5 1023.5 1023.5 -
29/10:00pm 14.0 - - - - ENE 6 7 3 4 1023.3 1023.3 -
29/09:30pm 14.2 - - - - ENE 4 7 2 4 1023.2 1023.2 -
29/09:00pm 14.6 - - - - E 2 7 1 4 1022.8 1022.8 -
29/08:30pm 14.8 - - - - E 2 6 1 3 1022.8 1022.8 -
29/08:00pm 15.6 - - - - SE 2 6 1 3 1022.5 1022.5 -
29/07:30pm 15.9 - - - - SSE 4 9 2 5 1022.2 1022.2 -
29/07:00pm 15.8 - - - - S 4 11 2 6 1021.8 1021.8 -
29/06:30pm 15.5 - - - - SSE 2 7 1 4 1021.5 1021.5 -
29/06:00pm 15.4 - - - - ESE 2 9 1 5 1021.0 1021.0 -
29/05:30pm 15.9 - - - - S 7 15 4 8 1020.6 1020.6 -
29/05:00pm 16.1 - - - - SSW 9 24 5 13 1020.2 1020.2 -
29/04:30pm 17.4 - - - - SSW 11 24 6 13 1019.8 1019.8 -
29/04:00pm 17.8 - - - - SSW 13 20 7 11 1019.5 1019.5 -
29/03:30pm 17.6 - - - - SSW 7 17 4 9 1019.2 1019.2 -
29/03:00pm 17.5 - - - - SSW 7 17 4 9 1018.8 1018.8 -
29/02:30pm 17.1 - - - - SSW 11 20 6 11 1018.5 1018.5 -
29/02:00pm 17.7 - - - - SW 15 24 8 13 1018.3 1018.3 -
29/01:30pm 17.8 - - - - SW 15 22 8 12 1018.2 1018.2 -
29/01:00pm 17.8 - - - - SW 11 19 6 10 1018.2 1018.2 -
29/12:30pm 17.8 - - - - SSW 11 20 6 11 1018.5 1018.5 -
29/12:00pm 18.0 - - - - SW 9 19 5 10 1018.5 1018.5 -
29/11:30am 17.8 - - - - SSW 11 20 6 11 1018.6 1018.6 -
29/11:00am 17.5 - - - - SSW 11 20 6 11 1018.5 1018.5 -
29/10:30am 17.7 - - - - SSW 11 22 6 12 1018.4 1018.4 -
29/10:00am 17.3 - - - - SSW 6 11 3 6 1018.3 1018.3 -
29/09:30am 16.6 - - - - SSW 4 6 2 3 1018.0 1018.0 -
29/09:00am 15.8 - - - - WSW 20 35 11 19 1017.8 1017.8 -
29/08:30am 16.4 - - - - SW 20 35 11 19 1017.3 1017.3 -
29/08:00am 17.7 - - - - WSW 22 28 12 15 1016.7 1016.7 -
29/07:30am 17.6 - - - - WSW 20 32 11 17 1016.1 1016.1 -
29/07:00am 17.6 - - - - WSW 17 26 9 14 1015.7 1015.7 -
29/06:30am 17.0 - - - - SW 9 20 5 11 1015.3 1015.3 -
29/06:00am 17.1 - - - - WSW 19 30 10 16 1014.8 1014.8 -
29/05:30am 17.5 - - - - WSW 17 24 9 13 1014.4 1014.4 -
29/05:00am 17.5 - - - - WSW 17 22 9 12 1014.2 1014.2 -
29/04:30am 17.3 - - - - WSW 19 24 10 13 1014.1 1014.1 -
29/04:00am 17.7 - - - - WSW 22 30 12 16 1013.8 1013.8 -
29/03:30am 17.2 - - - - SW 13 22 7 12 1013.7 1013.7 -
29/03:00am 17.0 - - - - WSW 17 26 9 14 1013.6 1013.6 -
29/02:30am 17.6 - - - - WSW 17 24 9 13 1013.5 1013.5 -
29/02:00am 17.6 - - - - WSW 13 19 7 10 1013.4 1013.4 -
29/01:30am 17.7 - - - - WSW 17 22 9 12 1013.2 1013.2 -
29/01:00am 17.6 - - - - WSW 13 20 7 11 1013.2 1013.2 -
29/12:30am 17.7 - - - - WSW 15 20 8 11 1013.2 1013.2 -
29/12:00am 17.9 - - - - WSW 15 19 8 10 1013.2 1013.2 -
 
Date/Time
WST
Temp
°C
App
Temp
°C
Dew
Point
°C
Rel
Hum
%
Delta-T
°C
Wind Press
QNH
hPa
Press
MSL
hPa
Rain since
9am
mm
Dir  Spd
km/h
Gust
km/h
Spd
kts
Gust
kts
28/11:30pm 17.9 - - - - WSW 15 22 8 12 1013.2 1013.2 -
28/11:00pm 17.9 - - - - W 13 20 7 11 1013.2 1013.2 -
28/10:30pm 17.9 - - - - WSW 13 19 7 10 1012.6 1012.6 -
28/10:00pm 17.9 - - - - WSW 13 22 7 12 1012.9 1012.9 -
28/09:30pm 17.9 - - - - WSW 13 19 7 10 1012.6 1012.6 -
28/09:00pm 18.1 - - - - WSW 13 20 7 11 1012.8 1012.8 -
28/08:30pm 18.0 - - - - WSW 13 20 7 11 1012.8 1012.8 -
28/08:00pm 17.9 - - - - W 9 13 5 7 1012.6 1012.6 -
28/07:30pm 18.1 - - - - W 11 17 6 9 1012.6 1012.6 -
28/07:00pm 17.6 - - - - W 7 11 4 6 1012.3 1012.3 -
28/06:30pm 18.0 - - - - W 13 17 7 9 1012.2 1012.2 -
28/06:00pm 18.1 - - - - W 17 26 9 14 1011.8 1011.8 -
28/05:30pm 17.8 - - - - W 11 17 6 9 1011.6 1011.6 -
28/05:00pm 17.7 - - - - W 11 19 6 10 1011.4 1011.4 -
28/04:30pm 17.4 - - - - W 17 28 9 15 1011.2 1011.2 -
28/04:00pm 17.9 - - - - W 9 15 5 8 1011.0 1011.0 -
28/03:30pm 17.6 - - - - W 7 13 4 7 1011.1 1011.1 -
28/03:00pm 17.1 - - - - WSW 15 19 8 10 1011.0 1011.0 -
28/02:30pm 18.0 - - - - WNW 11 19 6 10 1010.7 1010.7 -
28/02:00pm 17.6 - - - - WNW 15 24 8 13 1010.6 1010.6 -
28/01:30pm 17.2 - - - - NW 11 17 6 9 1011.2 1011.2 -
28/01:00pm 15.3 - - - - WNW 20 37 11 20 1011.3 1011.3 -
28/12:30pm 16.1 - - - - N 19 37 10 20 1010.9 1010.9 -
28/12:00pm 16.7 - - - - N 15 26 8 14 1011.5 1011.5 -
28/11:30am 17.4 - - - - N 19 33 10 18 1011.9 1011.9 -
28/11:00am 16.1 - - - - N 11 22 6 12 1012.2 1012.2 -
28/10:30am 17.2 - - - - N 17 28 9 15 1012.3 1012.3 -
28/10:00am 16.3 - - - - N 19 33 10 18 1012.5 1012.5 -
28/09:30am 16.0 - - - - N 15 26 8 14 1012.5 1012.5 -
28/09:00am 15.1 - - - - NNE 15 24 8 13 1012.4 1012.4 -
28/08:30am 14.4 - - - - N 13 22 7 12 1012.6 1012.6 -
28/08:00am 13.7 - - - - NNE 11 17 6 9 1012.4 1012.4 -
28/07:30am 13.6 - - - - NNE 11 20 6 11 1012.3 1012.3 -
28/07:00am 13.6 - - - - NNE 13 20 7 11 1012.2 1012.2 -
28/06:30am 13.3 - - - - NNE 11 17 6 9 1012.3 1012.3 -
28/06:00am 13.1 - - - - NNE 13 22 7 12 1012.0 1012.0 -
28/05:30am 13.7 - - - - NNE 15 26 8 14 1011.8 1011.8 -
28/05:00am 13.1 - - - - NNE 15 20 8 11 1011.8 1011.8 -
28/04:30am 13.4 - - - - NNE 13 20 7 11 1011.8 1011.8 -
28/04:00am 12.6 - - - - NNE 15 22 8 12 1011.9 1011.9 -
28/03:30am 12.8 - - - - NNE 15 24 8 13 1012.0 1012.0 -
28/03:00am 12.7 - - - - NNE 15 20 8 11 1012.3 1012.3 -
28/02:30am 12.9 - - - - NNE 15 24 8 13 1012.6 1012.6 -
28/02:00am 12.4 - - - - NNE 13 20 7 11 1012.6 1012.6 -
28/01:30am 12.3 - - - - NE 11 19 6 10 1012.9 1012.9 -
28/01:00am 12.5 - - - - NNE 13 20 7 11 1013.2 1013.2 -
28/12:30am 12.3 - - - - NNE 13 19 7 10 1013.5 1013.5 -
28/12:00am 12.6 - - - - NNE 11 17 6 9 1014.0 1014.0 -
 
Date/Time
WST
Temp
°C
App
Temp
°C
Dew
Point
°C
Rel
Hum
%
Delta-T
°C
Wind Press
QNH
hPa
Press
MSL
hPa
Rain since
9am
mm
Dir  Spd
km/h
Gust
km/h
Spd
kts
Gust
kts
27/11:30pm 12.7 - - - - NNE 9 17 5 9 1014.3 1014.3 -
27/11:00pm 12.9 - - - - NNE 9 15 5 8 1014.4 1014.4 -
27/10:30pm 12.9 - - - - NNE 7 11 4 6 1014.5 1014.5 -
27/10:00pm 12.7 - - - - NE 6 9 3 5 1014.6 1014.6 -
27/09:30pm 14.1 - - - - NNE 11 22 6 12 1014.9 1014.9 -
27/09:00pm 13.8 - - - - NNE 7 11 4 6 1014.8 1014.8 -
27/08:30pm 13.6 - - - - NNE 7 13 4 7 1015.2 1015.2 -
27/08:00pm 14.2 - - - - NE 6 9 3 5 1015.3 1015.3 -
27/07:30pm 14.2 - - - - NE 6 7 3 4 1015.4 1015.4 -
27/07:00pm 14.5 - - - - ENE 6 9 3 5 1015.4 1015.4 -
27/06:30pm 14.6 - - - - NE 4 6 2 3 1015.4 1015.4 -

Latest Capital City Observations: Canberra | Sydney | Melbourne | Brisbane | Adelaide | Perth | Hobart | Darwin

Other Formats:

Comma delimited format used in spreadsheet applications
http://www.bom.gov.au/fwo/IDW60901/IDW60901.95605.axf

JavaScript Object Notation format (JSON) in row-major order
http://www.bom.gov.au/fwo/IDW60901/IDW60901.95605.json